Time;durP1;ratioP1;P1;durP2;ratioP2;P2;SDS_P1;SDS_P2;PMS_P1;PMS_P2;Temp;Humidity;BMP_temperature;BMP_pressure;BME280_temperature;BME280_humidity;BME280_pressure;Samples;Min_cycle;Max_cycle;Signal;HPM_P1;HPM_P2
2023/06/21 00:00:49;;;;;;;16.92;15.23;;;20.40;99.90;;;;;;6178766;28;20070;-79
2023/06/21 00:07:53;;;;;;;16.20;14.48;;;20.40;99.90;;;;;;6178586;28;20054;-79
2023/06/21 00:10:54;;;;;;;16.70;15.00;;;20.40;99.90;;;;;;6178284;28;20054;-80
2023/06/21 00:13:56;;;;;;;17.67;16.10;;;20.30;99.90;;;;;;6178739;28;20062;-79
2023/06/21 00:16:58;;;;;;;17.33;15.82;;;20.30;99.90;;;;;;6179201;28;20081;-80
2023/06/21 00:19:59;;;;;;;18.30;15.82;;;20.30;99.90;;;;;;6197098;28;20046;-81
2023/06/21 00:23:03;;;;;;;17.63;16.10;;;20.10;99.90;;;;;;6186882;28;20054;-80
2023/06/21 00:26:04;;;;;;;19.08;17.10;;;20.20;99.90;;;;;;6177909;28;20055;-79
2023/06/21 00:29:06;;;;;;;21.10;17.17;;;20.10;99.90;;;;;;6177711;28;20054;-81
2023/06/21 00:32:08;;;;;;;19.02;16.95;;;19.90;99.90;;;;;;6178481;28;20392;-80
2023/06/21 00:35:10;;;;;;;19.67;17.77;;;19.90;99.90;;;;;;6177542;28;20050;-81
2023/06/21 00:38:13;;;;;;;18.73;16.83;;;19.90;99.90;;;;;;6176974;28;20106;-80
2023/06/21 00:41:15;;;;;;;18.75;16.83;;;19.80;99.90;;;;;;6177029;28;20051;-81
2023/06/21 00:44:16;;;;;;;21.42;16.63;;;19.60;99.90;;;;;;6177380;28;20047;-81
2023/06/21 00:47:18;;;;;;;20.35;18.20;;;19.70;99.90;;;;;;6177678;28;20057;-81
2023/06/21 00:50:20;;;;;;;21.63;19.55;;;19.70;99.90;;;;;;6177605;28;20055;-81
2023/06/21 00:53:26;;;;;;;20.52;17.92;;;19.70;99.90;;;;;;6176216;28;20058;-81
2023/06/21 00:56:27;;;;;;;18.35;16.33;;;19.60;99.90;;;;;;6178036;28;20070;-81
2023/06/21 00:59:29;;;;;;;25.77;18.90;;;19.60;99.90;;;;;;6176309;28;20055;-81
2023/06/21 01:02:31;;;;;;;18.80;16.90;;;19.60;99.90;;;;;;6177026;28;20047;-80
2023/06/21 01:05:34;;;;;;;18.45;16.65;;;19.60;99.90;;;;;;6177476;28;20058;-79
2023/06/21 01:08:46;;;;;;;20.38;17.05;;;19.50;99.90;;;;;;6176537;28;20141;-81
2023/06/21 01:11:53;;;;;;;17.42;15.75;;;19.50;99.90;;;;;;6175462;28;20054;-81
2023/06/21 01:15:00;;;;;;;18.23;16.50;;;19.60;99.90;;;;;;6177231;28;20057;-81
2023/06/21 01:18:05;;;;;;;20.00;17.80;;;19.60;99.90;;;;;;6176788;28;20062;-81
2023/06/21 01:21:09;;;;;;;20.15;18.17;;;19.50;99.90;;;;;;6176901;28;20046;-81
2023/06/21 01:24:27;;;;;;;19.42;17.35;;;19.60;99.90;;;;;;6177845;28;20046;-81
2023/06/21 01:27:34;;;;;;;;;;;19.50;99.90;;;;;;6176553;28;20047;-78
2023/06/21 01:30:39;;;;;;;17.10;15.45;;;19.50;99.90;;;;;;6177104;28;19929;-80
2023/06/21 01:33:40;;;;;;;19.27;17.25;;;19.40;99.90;;;;;;6177899;28;20051;-80
2023/06/21 01:36:42;;;;;;;20.13;18.25;;;19.40;99.90;;;;;;6178589;28;20179;-81
2023/06/21 01:39:44;;;;;;;17.15;15.38;;;19.40;99.90;;;;;;6177196;28;20059;-80
2023/06/21 01:42:46;;;;;;;17.98;16.20;;;19.20;99.90;;;;;;6177415;28;20055;-81
2023/06/21 01:45:51;;;;;;;20.67;17.15;;;19.20;99.90;;;;;;6176134;28;20498;-80
2023/06/21 01:48:53;;;;;;;20.60;17.75;;;19.20;99.90;;;;;;6173843;28;20046;-81
2023/06/21 01:51:56;;;;;;;17.95;16.40;;;19.20;99.90;;;;;;6176300;28;20058;-81
2023/06/21 01:54:58;;;;;;;19.95;16.65;;;19.20;99.90;;;;;;6176847;28;20070;-81
2023/06/21 01:58:00;;;;;;;18.00;16.08;;;19.10;99.90;;;;;;6176285;28;20065;-81
2023/06/21 02:01:04;;;;;;;18.55;16.75;;;19.10;99.90;;;;;;6176267;28;20055;-79
2023/06/21 02:04:08;;;;;;;18.52;16.38;;;19.10;99.90;;;;;;6178211;28;20123;-81
2023/06/21 02:07:13;;;;;;;24.15;16.40;;;19.00;99.90;;;;;;6176246;28;20133;-80
2023/06/21 02:10:18;;;;;;;17.42;15.75;;;19.00;99.90;;;;;;6176690;28;20054;-81
2023/06/21 02:13:20;;;;;;;17.98;16.00;;;19.00;99.90;;;;;;6177277;28;20121;-81
2023/06/21 02:16:26;;;;;;;17.35;15.65;;;19.00;99.90;;;;;;6177558;28;20129;-79
2023/06/21 02:19:28;;;;;;;19.10;15.48;;;19.00;99.90;;;;;;6176173;28;20125;-81
2023/06/21 02:22:31;;;;;;;19.05;16.05;;;19.00;99.90;;;;;;6177545;28;20058;-81
2023/06/21 02:25:35;;;;;;;18.77;16.45;;;18.90;99.90;;;;;;6180862;28;20082;-80
2023/06/21 02:28:37;;;;;;;17.05;15.13;;;18.90;99.90;;;;;;6181208;28;20050;-81
2023/06/21 02:31:40;;;;;;;21.33;16.77;;;18.90;99.90;;;;;;6181394;28;20051;-81
2023/06/21 02:34:42;;;;;;;18.13;16.25;;;18.90;99.90;;;;;;6180942;28;20047;-81
2023/06/21 02:37:44;;;;;;;19.95;16.73;;;19.00;99.90;;;;;;6180356;28;20054;-79
2023/06/21 02:40:46;;;;;;;20.23;18.20;;;19.00;99.90;;;;;;6181662;28;20051;-81
2023/06/21 02:43:47;;;;;;;19.13;17.30;;;19.00;99.90;;;;;;6180514;28;20059;-80
2023/06/21 02:46:50;;;;;;;17.60;16.10;;;19.00;99.90;;;;;;6182792;28;20458;-80
2023/06/21 02:49:52;;;;;;;15.98;14.55;;;19.00;99.90;;;;;;6182495;28;20086;-81
2023/06/21 02:52:54;;;;;;;22.27;16.65;;;19.00;99.90;;;;;;6180753;28;20050;-80
2023/06/21 02:55:55;;;;;;;22.08;15.63;;;19.00;99.90;;;;;;6179546;28;20050;-81
2023/06/21 02:58:57;;;;;;;16.75;15.25;;;19.00;99.90;;;;;;6179838;28;20050;-80
2023/06/21 03:02:00;;;;;;;16.60;14.55;;;19.10;99.90;;;;;;6180089;28;20058;-80
2023/06/21 03:05:02;;;;;;;16.13;14.63;;;19.10;99.90;;;;;;6180118;28;20062;-80
2023/06/21 03:08:06;;;;;;;16.63;14.88;;;19.10;99.90;;;;;;6204598;28;20050;-80
2023/06/21 03:11:08;;;;;;;15.10;12.98;;;19.00;99.90;;;;;;6207078;28;20118;-80
2023/06/21 03:14:10;;;;;;;13.80;12.43;;;19.10;99.90;;;;;;6215241;28;20109;-80
2023/06/21 03:17:13;;;;;;;17.75;12.38;;;19.20;99.90;;;;;;6228112;28;20454;-79
2023/06/21 03:20:15;;;;;;;16.52;12.43;;;19.40;99.90;;;;;;6228473;28;20047;-80
2023/06/21 03:23:17;;;;;;;17.13;14.15;;;19.40;99.90;;;;;;6228429;28;20124;-79
2023/06/21 03:26:19;;;;;;;17.73;14.13;;;19.20;99.90;;;;;;6228761;28;20377;-79
2023/06/21 03:29:20;;;;;;;16.92;13.27;;;19.10;99.90;;;;;;6227981;28;20050;-79
2023/06/21 03:32:23;;;;;;;17.25;12.20;;;19.00;99.90;;;;;;6229751;28;20136;-78
2023/06/21 03:35:28;;;;;;;15.60;13.93;;;18.90;99.90;;;;;;6228526;28;20049;-79
2023/06/21 03:38:30;;;;;;;15.48;13.93;;;18.90;99.90;;;;;;6229299;28;20046;-79
2023/06/21 03:41:32;;;;;;;15.98;12.88;;;19.00;99.90;;;;;;6228603;28;20046;-79
2023/06/21 03:44:33;;;;;;;14.73;12.82;;;19.10;99.90;;;;;;6229689;28;20057;-79
2023/06/21 03:47:38;;;;;;;14.73;13.23;;;19.00;99.90;;;;;;6229370;28;20045;-79
2023/06/21 03:50:40;;;;;;;16.00;12.73;;;19.10;99.90;;;;;;6229440;28;20074;-79
2023/06/21 03:53:42;;;;;;;21.67;14.75;;;19.10;99.90;;;;;;6214323;28;20042;-78
2023/06/21 03:56:44;;;;;;;21.45;14.05;;;19.00;99.90;;;;;;6207175;28;20492;-77
2023/06/21 03:59:46;;;;;;;24.75;15.02;;;19.10;99.90;;;;;;6183012;28;20061;-78
2023/06/21 04:02:49;;;;;;;19.02;14.35;;;19.10;99.90;;;;;;6181207;28;20054;-77
2023/06/21 04:05:50;;;;;;;21.50;16.08;;;19.10;99.90;;;;;;6181186;28;20042;-78
2023/06/21 04:08:52;;;;;;;20.40;16.45;;;19.10;99.90;;;;;;6180515;28;20051;-79
2023/06/21 04:11:54;;;;;;;21.70;15.45;;;19.10;99.90;;;;;;6181142;28;20051;-77
2023/06/21 04:14:57;;;;;;;24.35;15.95;;;19.10;99.90;;;;;;6180020;28;20081;-78
2023/06/21 04:18:00;;;;;;;21.77;17.05;;;18.90;99.90;;;;;;6180560;28;20105;-78
2023/06/21 04:21:02;;;;;;;17.73;15.30;;;18.80;99.90;;;;;;6181637;28;20404;-78
2023/06/21 04:24:04;;;;;;;18.45;15.85;;;18.70;99.90;;;;;;6174794;28;20054;-78
2023/06/21 04:27:07;;;;;;;18.90;16.15;;;18.70;99.90;;;;;;6174430;28;20064;-79
2023/06/21 04:30:10;;;;;;;23.55;17.67;;;18.70;99.90;;;;;;6175277;28;20046;-78
2023/06/21 04:33:13;;;;;;;18.13;15.52;;;18.70;99.90;;;;;;6176584;28;20062;-79
2023/06/21 04:36:17;;;;;;;25.23;19.60;;;18.70;99.90;;;;;;6176874;28;20054;-79
2023/06/21 04:39:20;;;;;;;18.52;15.85;;;18.80;99.90;;;;;;6177266;28;20045;-79
2023/06/21 04:42:22;;;;;;;21.63;16.52;;;18.80;99.90;;;;;;6177129;28;20114;-76
2023/06/21 04:45:23;;;;;;;24.65;17.60;;;18.80;99.90;;;;;;6176582;28;20055;-78
2023/06/21 04:48:26;;;;;;;20.17;16.77;;;18.80;99.90;;;;;;6177410;28;20046;-78
2023/06/21 04:51:28;;;;;;;26.45;17.85;;;18.90;99.90;;;;;;6177741;28;20054;-79
2023/06/21 04:54:32;;;;;;;21.38;17.73;;;19.00;99.90;;;;;;6178534;28;20054;-78
2023/06/21 04:57:34;;;;;;;22.83;16.63;;;19.10;99.90;;;;;;6178372;28;20042;-78
2023/06/21 05:00:36;;;;;;;20.10;17.15;;;19.10;99.90;;;;;;6178626;28;20976;-77
2023/06/21 05:03:39;;;;;;;22.85;16.88;;;19.20;99.90;;;;;;6177372;28;20057;-78
2023/06/21 05:06:41;;;;;;;19.98;16.45;;;19.20;99.90;;;;;;6177116;28;20051;-78
2023/06/21 05:09:43;;;;;;;25.70;16.83;;;19.20;99.90;;;;;;6176836;28;20091;-79
2023/06/21 05:12:45;;;;;;;21.75;16.02;;;19.10;99.90;;;;;;6177411;28;20062;-79
2023/06/21 05:15:47;;;;;;;20.00;17.02;;;19.10;99.90;;;;;;6177300;28;20047;-78
2023/06/21 05:18:50;;;;;;;21.77;15.77;;;19.20;99.90;;;;;;6178604;28;20057;-79
2023/06/21 05:21:51;;;;;;;13.98;12.57;;;19.20;99.90;;;;;;6176319;28;20057;-79
2023/06/21 05:24:53;;;;;;;16.00;13.60;;;19.30;99.90;;;;;;6177568;28;20526;-79
2023/06/21 05:27:55;;;;;;;17.48;15.40;;;19.30;99.90;;;;;;6177612;28;20053;-78
2023/06/21 05:30:56;;;;;;;14.43;13.00;;;19.40;99.90;;;;;;6177406;28;20050;-77
2023/06/21 05:34:00;;;;;;;17.42;13.93;;;19.40;99.90;;;;;;6174238;28;20073;-77
2023/06/21 05:37:02;;;;;;;20.23;15.07;;;19.60;99.90;;;;;;6175524;28;20057;-77
2023/06/21 05:40:07;;;;;;;13.38;12.07;;;19.80;99.90;;;;;;6171972;28;20461;-77
2023/06/21 05:43:17;;;;;;;16.73;14.50;;;20.10;99.90;;;;;;6173840;28;20534;-77
2023/06/21 05:46:29;;;;;;;12.48;11.18;;;20.40;99.90;;;;;;6174805;28;20055;-78
2023/06/21 05:49:38;;;;;;;13.30;11.57;;;20.70;99.90;;;;;;6173139;28;20047;-77
2023/06/21 05:52:47;;;;;;;14.85;11.63;;;20.80;99.90;;;;;;6174053;28;20420;-77
2023/06/21 05:56:08;;;;;;;16.63;12.73;;;21.00;99.90;;;;;;6165520;28;20070;-78
2023/06/21 06:03:39;;;;;;;14.93;12.40;;;21.10;99.90;;;;;;6178919;28;20092;-77
2023/06/21 06:06:58;;;;;;;17.25;11.40;;;21.30;99.90;;;;;;6175573;28;20050;-78
2023/06/21 06:13:28;;;;;;;14.60;10.50;;;22.00;99.90;;;;;;6153485;28;20053;-78
2023/06/21 06:16:48;;;;;;;13.93;10.38;;;22.20;99.90;;;;;;6198945;28;20139;-78
2023/06/21 06:19:52;;;;;;;11.20;10.00;;;22.40;99.90;;;;;;6185874;28;20049;-77
2023/06/21 06:22:55;;;;;;;10.55;9.25;;;22.60;99.90;;;;;;6201549;28;20049;-77
2023/06/21 06:25:56;;;;;;;11.50;8.82;;;22.90;99.90;;;;;;6201549;28;20043;-77
2023/06/21 06:28:58;;;;;;;8.38;6.50;;;23.30;99.90;;;;;;6201569;28;20046;-76
2023/06/21 06:32:00;;;;;;;11.15;6.20;;;23.50;99.90;;;;;;6201875;28;20133;-77
2023/06/21 06:35:02;;;;;;;7.47;5.97;;;23.80;99.90;;;;;;6200992;28;20563;-77
2023/06/21 06:38:05;;;;;;;9.73;6.68;;;23.90;99.90;;;;;;6200582;28;20114;-76
2023/06/21 06:41:07;;;;;;;7.78;5.85;;;24.70;99.90;;;;;;6201739;28;20070;-77
2023/06/21 06:44:09;;;;;;;10.25;4.97;;;25.60;99.90;;;;;;6208092;28;20050;-77
2023/06/21 06:47:10;;;;;;;5.88;5.32;;;25.50;99.90;;;;;;6201203;28;20057;-77
2023/06/21 06:50:12;;;;;;;10.82;6.30;;;25.10;99.90;;;;;;6201376;28;20121;-77
2023/06/21 06:53:15;;;;;;;9.23;5.45;;;24.50;99.90;;;;;;6199907;28;20050;-76
2023/06/21 06:56:17;;;;;;;11.35;5.70;;;24.10;99.90;;;;;;6200458;28;20057;-76
2023/06/21 06:59:18;;;;;;;7.95;7.18;;;23.70;99.90;;;;;;6199952;28;20049;-77
2023/06/21 07:02:20;;;;;;;6.78;6.10;;;23.30;99.90;;;;;;6200328;28;20046;-76
2023/06/21 07:05:22;;;;;;;8.23;7.15;;;23.10;99.90;;;;;;6186577;28;20074;-77
2023/06/21 07:08:25;;;;;;;6.65;5.25;;;23.10;99.90;;;;;;6183530;28;20049;-78
2023/06/21 07:11:27;;;;;;;9.95;5.93;;;23.70;99.90;;;;;;6188422;28;20053;-77
2023/06/21 07:14:28;;;;;;;10.30;7.50;;;24.60;99.90;;;;;;6191210;28;20070;-77
2023/06/21 07:17:30;;;;;;;12.88;8.27;;;25.00;99.90;;;;;;6185956;28;20058;-77
2023/06/21 07:20:32;;;;;;;8.20;5.88;;;25.10;99.90;;;;;;6189227;28;20053;-77
2023/06/21 07:23:35;;;;;;;11.43;6.70;;;25.30;99.90;;;;;;6185527;28;20049;-77
2023/06/21 07:26:37;;;;;;;9.60;7.10;;;25.30;99.90;;;;;;6185709;28;20042;-77
2023/06/21 07:29:38;;;;;;;12.68;8.25;;;25.30;99.90;;;;;;6187988;28;20042;-77
2023/06/21 07:32:40;;;;;;;10.60;6.60;;;25.40;99.90;;;;;;6184858;28;20064;-78
2023/06/21 07:35:42;;;;;;;12.23;7.03;;;26.00;99.90;;;;;;6188076;28;20061;-77
2023/06/21 07:38:46;;;;;;;11.48;7.43;;;26.50;99.90;;;;;;6187749;28;20049;-78
2023/06/21 07:41:48;;;;;;;11.30;6.57;;;27.20;99.90;;;;;;6196236;28;20074;-78
2023/06/21 07:44:52;;;;;;;10.48;6.65;;;27.80;99.90;;;;;;6188733;28;20050;-79
2023/06/21 07:47:53;;;;;;;7.63;5.78;;;28.30;99.90;;;;;;6192892;28;20046;-77
2023/06/21 07:50:55;;;;;;;7.80;7.00;;;28.80;99.90;;;;;;6192155;28;20157;-77
2023/06/21 07:53:58;;;;;;;9.52;6.68;;;29.00;99.90;;;;;;6192302;28;20062;-78
2023/06/21 07:57:00;;;;;;;7.75;6.65;;;29.20;99.90;;;;;;6194656;28;20116;-78
2023/06/21 08:00:08;;;;;;;13.95;6.93;;;29.00;99.90;;;;;;6190781;28;20375;-78
2023/06/21 08:03:10;;;;;;;11.90;7.85;;;28.90;99.90;;;;;;6188388;28;20470;-78
2023/06/21 08:06:12;;;;;;;7.93;7.07;;;28.40;99.90;;;;;;6190670;28;20151;-78
2023/06/21 08:09:16;;;;;;;11.05;6.95;;;28.00;99.90;;;;;;6189117;28;20050;-78
2023/06/21 08:12:17;;;;;;;11.70;7.63;;;27.60;99.90;;;;;;6191168;28;20434;-78
2023/06/21 08:15:19;;;;;;;11.27;8.27;;;27.10;99.90;;;;;;6189623;28;20524;-77
2023/06/21 08:18:20;;;;;;;9.52;8.57;;;26.60;99.90;;;;;;6183196;28;22717;-77
2023/06/21 08:21:22;;;;;;;10.57;9.27;;;26.20;99.90;;;;;;6188945;28;20066;-77
2023/06/21 08:24:27;;;;;;;12.73;7.72;;;25.90;99.90;;;;;;6184700;28;20057;-77
2023/06/21 08:27:28;;;;;;;8.02;6.93;;;25.70;99.90;;;;;;6185107;28;20046;-77
2023/06/21 08:30:31;;;;;;;10.68;7.20;;;25.40;99.90;;;;;;6188811;28;20521;-77
2023/06/21 08:33:32;;;;;;;9.02;7.40;;;25.00;99.90;;;;;;6188744;28;20057;-78
2023/06/21 08:36:34;;;;;;;9.13;8.23;;;24.80;99.90;;;;;;6195070;28;20061;-77
2023/06/21 08:39:37;;;;;;;10.10;7.72;;;24.60;99.90;;;;;;6187216;28;20053;-78
2023/06/21 08:42:39;;;;;;;10.82;8.23;;;24.50;99.90;;;;;;6186097;28;20050;-77
2023/06/21 08:45:42;;;;;;;12.32;6.95;;;24.60;99.90;;;;;;6185296;28;20101;-77
2023/06/21 08:48:47;;;;;;;8.57;7.22;;;24.70;99.90;;;;;;6187352;28;20054;-77
2023/06/21 08:51:51;;;;;;;8.30;6.78;;;24.80;99.90;;;;;;6186880;28;20502;-77
2023/06/21 08:55:00;;;;;;;8.38;7.47;;;24.80;99.90;;;;;;6188308;28;20057;-78
2023/06/21 08:58:09;;;;;;;7.32;6.63;;;25.00;99.90;;;;;;6186991;28;20062;-76
2023/06/21 09:01:13;;;;;;;7.70;6.60;;;25.10;99.90;;;;;;6181975;28;20054;-77
2023/06/21 09:04:17;;;;;;;8.13;6.80;;;25.20;99.90;;;;;;6188436;28;20496;-78
2023/06/21 09:07:19;;;;;;;6.40;5.80;;;25.20;99.90;;;;;;6185781;28;20141;-78
2023/06/21 09:10:23;;;;;;;8.27;6.80;;;25.10;99.90;;;;;;6189653;28;20057;-77
2023/06/21 09:13:27;;;;;;;8.13;6.97;;;25.10;99.90;;;;;;6191307;28;20038;-77
2023/06/21 09:16:29;;;;;;;7.55;6.65;;;25.00;99.90;;;;;;6179710;28;20457;-78
2023/06/21 09:19:31;;;;;;;8.02;6.97;;;25.00;99.90;;;;;;6185742;28;20054;-78
2023/06/21 09:22:33;;;;;;;10.20;7.45;;;25.00;99.90;;;;;;6187175;28;20054;-78
2023/06/21 09:25:37;;;;;;;10.45;5.60;;;24.90;99.90;;;;;;6195839;28;20117;-78
2023/06/21 09:28:39;;;;;;;11.95;7.45;;;24.80;99.90;;;;;;6200692;28;20361;-78
2023/06/21 09:31:41;;;;;;;9.93;6.60;;;24.70;99.90;;;;;;6205897;28;20053;-78
2023/06/21 09:34:44;;;;;;;8.98;6.53;;;24.60;99.90;;;;;;6204942;28;20476;-78
2023/06/21 09:37:45;;;;;;;7.13;6.43;;;24.50;99.90;;;;;;6206128;28;20453;-77
2023/06/21 09:40:48;;;;;;;8.90;7.65;;;24.30;99.90;;;;;;6209195;28;20042;-77
2023/06/21 09:43:50;;;;;;;7.97;7.03;;;24.10;99.90;;;;;;6207186;28;20050;-78
2023/06/21 09:46:58;;;;;;;9.77;7.93;;;23.90;99.90;;;;;;6202838;28;20057;-78
2023/06/21 09:50:00;;;;;;;;;;;23.70;99.90;;;;;;6196708;28;20046;-78
2023/06/21 09:53:01;;;;;;;10.88;6.97;;;23.60;99.90;;;;;;6198190;28;19966;-77
2023/06/21 09:56:05;;;;;;;8.50;7.60;;;23.60;99.90;;;;;;6194897;28;20038;-78
2023/06/21 09:59:14;;;;;;;8.65;7.75;;;23.60;99.90;;;;;;6190999;28;20051;-77
2023/06/21 10:02:16;;;;;;;10.55;9.43;;;23.70;99.90;;;;;;6197153;28;20409;-78
2023/06/21 10:05:18;;;;;;;11.07;8.23;;;23.80;99.90;;;;;;6193351;28;20049;-77
2023/06/21 10:08:24;;;;;;;11.20;8.38;;;24.00;99.90;;;;;;6193594;28;20575;-78
2023/06/21 10:11:27;;;;;;;8.48;7.68;;;24.10;99.90;;;;;;6194629;28;20038;-78
2023/06/21 10:14:30;;;;;;;10.07;7.88;;;24.30;99.90;;;;;;6191022;28;20046;-78
2023/06/21 10:17:32;;;;;;;10.07;7.32;;;24.40;99.90;;;;;;6191618;28;20061;-77
2023/06/21 10:20:36;;;;;;;9.13;7.25;;;24.50;99.90;;;;;;6195432;28;20054;-78
2023/06/21 10:23:39;;;;;;;9.52;8.02;;;24.50;99.90;;;;;;6190834;28;20042;-77
2023/06/21 10:26:43;;;;;;;9.35;7.00;;;24.60;99.90;;;;;;6189301;28;20047;-79
2023/06/21 10:29:49;;;;;;;8.88;7.97;;;24.50;99.90;;;;;;6193347;28;20074;-77
2023/06/21 10:32:53;;;;;;;8.85;7.82;;;24.50;99.90;;;;;;6193688;28;20047;-78
2023/06/21 10:36:00;;;;;;;9.18;7.78;;;24.50;99.90;;;;;;6195816;28;20043;-79
2023/06/21 10:39:08;;;;;;;7.88;6.82;;;24.50;99.90;;;;;;6190344;28;20042;-78
2023/06/21 10:42:11;;;;;;;11.07;9.77;;;24.70;99.90;;;;;;6187240;28;20049;-78
2023/06/21 10:45:14;;;;;;;11.90;10.55;;;25.20;99.90;;;;;;6190227;28;20425;-79
2023/06/21 10:48:16;;;;;;;14.50;8.90;;;25.50;99.90;;;;;;6191800;28;20065;-78
2023/06/21 10:51:19;;;;;;;13.85;9.98;;;26.00;99.90;;;;;;6192726;28;20112;-78
2023/06/21 10:54:22;;;;;;;11.93;10.25;;;26.40;99.90;;;;;;6192033;28;20042;-79
2023/06/21 10:57:26;;;;;;;12.68;10.85;;;26.40;99.90;;;;;;6194692;28;20061;-77
2023/06/21 11:00:29;;;;;;;16.05;10.55;;;26.50;99.90;;;;;;6189327;28;20136;-80
2023/06/21 11:03:30;;;;;;;11.20;9.65;;;26.80;99.90;;;;;;6187218;28;20054;-79
2023/06/21 11:06:37;;;;;;;11.93;10.82;;;27.00;99.90;;;;;;6188864;28;20050;-77
2023/06/21 11:09:39;;;;;;;11.33;9.53;;;27.20;99.90;;;;;;6188423;28;20047;-77
2023/06/21 11:12:42;;;;;;;14.13;10.13;;;27.40;99.90;;;;;;6195658;28;20048;-78
2023/06/21 11:15:46;;;;;;;12.93;9.65;;;27.70;99.90;;;;;;6196091;28;20084;-79
2023/06/21 11:18:49;;;;;;;12.13;9.55;;;27.80;99.90;;;;;;6197626;28;20057;-79
2023/06/21 11:21:51;;;;;;;9.30;8.32;;;27.90;99.90;;;;;;6197590;28;20122;-79
2023/06/21 11:25:00;;;;;;;10.05;9.00;;;28.00;99.90;;;;;;6199921;28;20051;-78
2023/06/21 11:28:26;;;;;;;11.13;7.97;;;28.50;99.90;;;;;;6198302;28;20066;-78
2023/06/21 11:31:39;;;;;;;10.82;7.20;;;29.00;99.90;;;;;;6198769;28;20256;-78
2023/06/21 11:34:56;;;;;;;11.18;6.82;;;29.30;99.90;;;;;;6199734;28;20104;-79
2023/06/21 11:37:58;;;;;;;7.95;6.93;;;29.70;99.90;;;;;;6193498;28;20058;-79
2023/06/21 11:41:01;;;;;;;8.73;6.28;;;30.00;99.90;;;;;;6193619;28;20051;-78
2023/06/21 11:44:04;;;;;;;8.73;6.05;;;30.20;99.90;;;;;;6192411;28;20049;-78
2023/06/21 11:47:17;;;;;;;9.40;6.55;;;30.50;99.90;;;;;;6197189;28;20042;-77
2023/06/21 11:50:18;;;;;;;6.90;6.07;;;30.00;99.90;;;;;;6192020;28;20065;-78
2023/06/21 11:53:23;;;;;;;5.60;5.13;;;29.80;99.90;;;;;;6195125;28;20062;-79
2023/06/21 11:56:29;;;;;;;7.05;4.70;;;30.10;99.90;;;;;;6196921;28;20094;-79
2023/06/21 11:59:34;;;;;;;5.70;4.88;;;30.60;99.90;;;;;;6193255;28;20057;-78
2023/06/21 12:02:36;;;;;;;5.53;4.90;;;30.80;99.90;;;;;;6197030;28;20042;-78
2023/06/21 12:05:44;;;;;;;6.15;5.07;;;30.40;99.90;;;;;;6195704;28;20062;-78
2023/06/21 12:08:48;;;;;;;5.70;5.10;;;30.50;99.90;;;;;;6193635;28;20501;-77
2023/06/21 12:11:50;;;;;;;6.50;5.22;;;30.70;99.90;;;;;;6196816;28;20046;-80
2023/06/21 12:14:56;;;;;;;6.07;4.63;;;31.00;99.90;;;;;;6195994;28;20144;-76
2023/06/21 12:17:58;;;;;;;5.30;4.80;;;31.30;99.90;;;;;;6195936;28;22138;-77
2023/06/21 12:21:07;;;;;;;7.93;4.53;;;31.20;99.90;;;;;;6196964;28;20156;-77
2023/06/21 12:24:09;;;;;;;5.88;4.25;;;31.00;99.90;;;;;;6197111;28;20147;-78
2023/06/21 12:27:16;;;;;;;4.00;3.67;;;31.30;99.90;;;;;;6196665;28;20105;-77
2023/06/21 12:30:20;;;;;;;;;;;31.60;99.90;;;;;;6192315;28;20637;-76
2023/06/21 12:33:24;;;;;;;6.78;3.83;;;31.70;99.90;;;;;;6184095;28;19929;-77
2023/06/21 12:36:29;;;;;;;5.10;3.78;;;32.00;99.90;;;;;;6183105;28;20062;-77
2023/06/21 12:39:31;;;;;;;6.00;4.07;;;32.20;99.90;;;;;;6182149;28;20107;-77
2023/06/21 12:42:33;;;;;;;7.20;5.10;;;32.40;99.90;;;;;;6183667;28;20057;-77
2023/06/21 12:45:36;;;;;;;7.13;4.47;;;32.50;99.90;;;;;;6191434;28;20054;-77
2023/06/21 12:48:43;;;;;;;5.40;4.90;;;32.70;99.90;;;;;;6184220;28;20146;-78
2023/06/21 12:51:47;;;;;;;5.18;4.68;;;32.20;98.20;;;;;;6186372;28;20054;-78
2023/06/21 12:54:55;;;;;;;7.47;4.47;;;31.80;98.60;;;;;;6186187;28;20159;-78
2023/06/21 12:57:57;;;;;;;8.00;4.95;;;32.00;98.10;;;;;;6183760;28;20046;-78
2023/06/21 13:01:01;;;;;;;11.68;4.55;;;32.50;97.50;;;;;;6185954;28;20512;-77
2023/06/21 13:04:07;;;;;;;4.85;4.45;;;32.80;96.10;;;;;;6187663;28;20061;-77
2023/06/21 13:07:08;;;;;;;4.65;3.67;;;33.20;94.90;;;;;;6189196;28;20120;-77
2023/06/21 13:10:11;;;;;;;5.72;3.85;;;33.30;93.50;;;;;;6193306;28;20127;-78
2023/06/21 13:13:12;;;;;;;5.40;4.90;;;33.30;93.30;;;;;;6195822;28;20049;-78
2023/06/21 13:16:15;;;;;;;8.25;4.13;;;33.40;92.60;;;;;;6193548;28;20418;-79
2023/06/21 13:19:17;;;;;;;6.05;4.80;;;33.60;92.10;;;;;;6194021;28;20038;-78
2023/06/21 13:22:20;;;;;;;6.40;5.30;;;33.80;91.70;;;;;;6193182;28;20044;-78
2023/06/21 13:25:21;;;;;;;4.85;4.35;;;32.90;89.40;;;;;;6193922;28;20046;-78
2023/06/21 13:28:23;;;;;;;7.97;4.95;;;32.60;90.10;;;;;;6198602;28;20386;-78
2023/06/21 13:31:26;;;;;;;5.40;4.03;;;32.90;89.00;;;;;;6192360;28;20655;-76
2023/06/21 13:34:28;;;;;;;5.57;4.07;;;33.00;84.70;;;;;;6193746;28;20933;-78
2023/06/21 13:37:30;;;;;;;4.85;4.40;;;32.90;81.80;;;;;;6195209;28;20051;-78
2023/06/21 13:40:31;;;;;;;4.25;3.92;;;33.20;78.80;;;;;;6190950;28;20054;-77
2023/06/21 13:43:33;;;;;;;4.35;3.90;;;32.80;76.40;;;;;;6195095;28;20560;-78
2023/06/21 13:46:36;;;;;;;4.72;4.28;;;32.90;76.30;;;;;;6190238;28;20053;-79
2023/06/21 13:49:38;;;;;;;5.60;3.83;;;33.10;75.60;;;;;;6192143;28;20046;-78
2023/06/21 13:52:40;;;;;;;5.32;3.80;;;33.40;73.40;;;;;;6188901;28;20047;-76
2023/06/21 13:55:41;;;;;;;9.48;4.85;;;33.50;72.20;;;;;;6186290;28;20058;-77
2023/06/21 13:58:45;;;;;;;3.85;3.55;;;33.00;70.50;;;;;;6185865;28;20057;-76
2023/06/21 14:01:48;;;;;;;4.30;3.90;;;32.70;71.20;;;;;;6182887;28;20113;-77
2023/06/21 14:04:50;;;;;;;5.45;4.93;;;32.90;70.70;;;;;;6183002;28;20066;-76
2023/06/21 14:07:51;;;;;;;5.97;4.97;;;33.00;69.50;;;;;;6180396;28;20089;-76
2023/06/21 14:10:53;;;;;;;4.80;4.43;;;32.90;69.20;;;;;;6181179;28;20054;-77
2023/06/21 14:13:55;;;;;;;4.05;3.45;;;32.70;69.50;;;;;;6182661;28;20132;-76
2023/06/21 14:16:58;;;;;;;6.82;3.72;;;33.00;69.20;;;;;;6182108;28;20054;-76
2023/06/21 14:20:00;;;;;;;5.22;4.15;;;33.30;68.70;;;;;;6182572;28;20050;-77
2023/06/21 14:23:02;;;;;;;7.35;3.97;;;33.60;68.20;;;;;;6180999;28;20181;-76
2023/06/21 14:26:03;;;;;;;3.85;3.55;;;33.80;67.00;;;;;;6183758;28;20066;-77
2023/06/21 14:29:05;;;;;;;3.70;3.28;;;34.00;66.20;;;;;;6184821;28;20065;-76
2023/06/21 14:32:08;;;;;;;8.10;5.05;;;34.10;65.00;;;;;;6190229;28;20058;-77
2023/06/21 14:35:10;;;;;;;4.68;3.47;;;34.20;64.40;;;;;;6181705;28;20049;-77
2023/06/21 14:38:12;;;;;;;6.00;3.90;;;34.30;63.80;;;;;;6183059;28;20132;-77
2023/06/21 14:41:14;;;;;;;4.15;3.78;;;34.60;62.70;;;;;;6183559;28;20046;-76
2023/06/21 14:44:15;;;;;;;5.80;4.22;;;34.90;61.40;;;;;;6188801;28;20516;-77
2023/06/21 14:47:18;;;;;;;6.25;4.05;;;35.00;61.40;;;;;;6202409;28;20409;-76
2023/06/21 14:50:20;;;;;;;4.25;3.65;;;35.10;59.90;;;;;;6200636;28;20081;-78
2023/06/21 14:53:22;;;;;;;6.18;3.97;;;35.00;59.80;;;;;;6202548;28;20042;-76
2023/06/21 14:56:23;;;;;;;4.07;3.60;;;34.80;59.70;;;;;;6197224;28;20042;-77
2023/06/21 14:59:26;;;;;;;4.00;3.58;;;34.10;59.00;;;;;;6197731;28;20524;-78
2023/06/21 15:02:29;;;;;;;4.25;3.78;;;33.50;59.80;;;;;;6201372;28;20133;-76
2023/06/21 15:05:31;;;;;;;7.07;4.22;;;33.50;59.60;;;;;;6198638;28;20061;-77
2023/06/21 15:08:33;;;;;;;4.28;3.80;;;33.50;59.10;;;;;;6190190;28;20050;-77
2023/06/21 15:11:34;;;;;;;4.90;3.83;;;33.30;59.40;;;;;;6188506;28;20117;-77
2023/06/21 15:14:36;;;;;;;3.88;3.42;;;33.20;59.00;;;;;;6187744;28;20506;-79
2023/06/21 15:17:39;;;;;;;7.28;4.07;;;33.10;59.60;;;;;;6189417;28;20058;-79
2023/06/21 15:20:41;;;;;;;3.88;3.58;;;33.10;59.80;;;;;;6188624;28;20074;-77
2023/06/21 15:23:43;;;;;;;4.43;3.30;;;33.00;59.70;;;;;;6190353;28;20062;-77
2023/06/21 15:26:44;;;;;;;5.35;3.90;;;32.90;59.70;;;;;;6187766;28;20117;-77
2023/06/21 15:29:47;;;;;;;3.47;2.80;;;33.20;58.70;;;;;;6188837;28;20046;-77
2023/06/21 15:32:50;;;;;;;5.35;3.95;;;33.40;57.80;;;;;;6187841;28;20061;-78
2023/06/21 15:35:51;;;;;;;3.67;3.35;;;33.00;57.60;;;;;;6192788;28;20050;-78
2023/06/21 15:38:53;;;;;;;3.60;3.08;;;32.80;57.60;;;;;;6193242;28;20057;-78
2023/06/21 15:41:55;;;;;;;3.67;3.17;;;32.70;57.40;;;;;;6200538;28;20043;-78
2023/06/21 15:44:56;;;;;;;4.22;3.33;;;32.50;57.50;;;;;;6195251;28;20057;-78
2023/06/21 15:47:59;;;;;;;4.65;3.40;;;32.30;58.40;;;;;;6198527;28;20052;-79
2023/06/21 15:51:01;;;;;;;4.45;3.60;;;32.20;58.70;;;;;;6193294;28;20103;-78
2023/06/21 15:54:03;;;;;;;6.05;4.13;;;32.10;58.80;;;;;;6186360;28;20502;-80